createdAt,value
2019-01-26T00:01:02.116Z,23.00
2019-01-26T00:02:09.488Z,24.65
2019-01-26T00:03:14.233Z,21.05
2019-01-26T00:04:19.035Z,22.67
2019-01-26T00:05:23.823Z,23.95
2019-01-26T00:06:28.635Z,21.85
2019-01-26T00:07:33.394Z,23.98
2019-01-26T00:08:38.574Z,23.52
2019-01-26T00:09:43.707Z,25.10
2019-01-26T00:10:48.609Z,24.07
2019-01-26T00:11:53.669Z,24.47
2019-01-26T00:12:58.926Z,25.65
2019-01-26T00:14:04.101Z,30.10
2019-01-26T00:15:08.996Z,24.55
2019-01-26T00:16:17.182Z,27.95
2019-01-26T00:17:20.412Z,25.10
2019-01-26T00:18:25.868Z,27.58
2019-01-26T00:19:30.646Z,24.75
2019-01-26T00:20:36.560Z,26.02
2019-01-26T00:21:41.720Z,25.05
2019-01-26T00:22:47.225Z,26.57
2019-01-26T00:23:51.824Z,27.45
2019-01-26T00:24:56.634Z,25.60
2019-01-26T00:26:01.114Z,25.65
2019-01-26T00:27:05.905Z,26.68
2019-01-26T00:28:10.393Z,26.55
2019-01-26T00:29:15.878Z,25.88
2019-01-26T00:30:20.653Z,32.00
2019-01-26T00:31:25.796Z,26.27
2019-01-26T00:32:30.925Z,29.23
2019-01-26T00:33:35.425Z,29.95
2019-01-26T00:34:40.321Z,26.60
2019-01-26T00:35:45.138Z,30.30
2019-01-26T00:36:49.689Z,27.50
2019-01-26T00:37:54.496Z,30.32
2019-01-26T00:38:59.799Z,28.92
2019-01-26T00:40:05.690Z,30.50
2019-01-26T00:41:11.308Z,30.40
2019-01-26T00:42:16.416Z,29.27
2019-01-26T00:43:21.258Z,28.20
2019-01-26T00:44:26.822Z,30.68
2019-01-26T00:45:31.606Z,32.20
2019-01-26T00:46:36.388Z,33.75
2019-01-26T00:47:40.912Z,32.08
2019-01-26T00:48:46.314Z,34.90
2019-01-26T00:49:51.483Z,33.67
2019-01-26T00:50:56.565Z,33.00
2019-01-26T00:52:02.118Z,32.88
2019-01-26T00:53:06.695Z,35.28
2019-01-26T00:54:13.648Z,34.53
2019-01-26T00:55:18.411Z,37.58
2019-01-26T00:56:23.183Z,37.60
2019-01-26T00:57:28.272Z,35.63
2019-01-26T00:58:33.077Z,38.53
2019-01-26T00:59:38.397Z,37.90
2019-01-26T01:00:43.463Z,35.95
2019-01-26T01:01:48.540Z,41.60
2019-01-26T01:02:53.769Z,38.40
2019-01-26T01:03:58.556Z,40.43
2019-01-26T01:05:03.318Z,42.75
2019-01-26T01:06:07.802Z,39.30
2019-01-26T01:07:12.974Z,39.90
2019-01-26T01:08:17.715Z,41.10
2019-01-26T01:09:22.526Z,39.03
2019-01-26T01:10:27.284Z,44.75
2019-01-26T01:11:32.179Z,44.38
2019-01-26T01:12:37.260Z,42.33
2019-01-26T01:13:42.260Z,47.80
2019-01-26T01:14:47.904Z,43.52
2019-01-26T01:15:52.698Z,44.50
2019-01-26T01:16:57.766Z,45.80
2019-01-26T01:18:02.547Z,48.50
2019-01-26T01:19:07.357Z,43.35
2019-01-26T01:20:11.891Z,46.02
2019-01-26T01:21:16.665Z,49.93
2019-01-26T01:22:21.530Z,44.98
2019-01-26T01:23:26.746Z,49.10
2019-01-26T01:24:31.517Z,50.98
2019-01-26T01:25:36.696Z,47.30
2019-01-26T01:26:41.458Z,50.85
2019-01-26T01:27:47.270Z,45.52
2019-01-26T01:28:51.816Z,49.75
2019-01-26T01:29:57.043Z,49.08
2019-01-26T01:31:01.790Z,50.63
2019-01-26T01:32:06.564Z,51.45
2019-01-26T01:33:13.198Z,48.28
2019-01-26T01:34:18.110Z,48.00
2019-01-26T01:35:22.629Z,49.83
2019-01-26T01:36:27.746Z,48.17
2019-01-26T01:37:32.526Z,49.60
2019-01-26T01:38:37.331Z,49.42
2019-01-26T01:39:42.122Z,48.92
2019-01-26T01:40:47.298Z,43.63
2019-01-26T01:41:52.082Z,50.28
2019-01-26T01:42:56.900Z,48.45
2019-01-26T01:44:01.686Z,50.75
2019-01-26T01:45:07.801Z,51.60
2019-01-26T01:46:13.023Z,51.40
2019-01-26T01:47:18.104Z,50.28
2019-01-26T01:48:22.930Z,50.10
2019-01-26T01:49:27.716Z,47.90
2019-01-26T01:50:32.474Z,48.28
2019-01-26T01:51:37.277Z,47.95
2019-01-26T01:52:42.154Z,44.60
2019-01-26T01:53:46.948Z,45.55
2019-01-26T01:54:52.080Z,45.88
2019-01-26T01:55:57.692Z,46.60
2019-01-26T01:57:03.206Z,45.10
2019-01-26T01:58:08.001Z,42.62
2019-01-26T01:59:12.862Z,47.33
2019-01-26T02:00:19.599Z,44.80
2019-01-26T02:01:24.725Z,43.83
2019-01-26T02:02:29.942Z,44.42
2019-01-26T02:03:35.535Z,47.90
2019-01-26T02:04:40.404Z,49.33
2019-01-26T02:05:45.316Z,45.50
2019-01-26T02:06:50.133Z,44.03
2019-01-26T02:07:54.989Z,47.20
2019-01-26T02:09:00.170Z,46.88
2019-01-26T02:10:05.567Z,43.78
2019-01-26T02:11:10.397Z,44.95
2019-01-26T02:12:16.033Z,45.15
2019-01-26T02:13:21.289Z,45.75
2019-01-26T02:14:26.179Z,44.67
2019-01-26T02:15:31.401Z,45.43
2019-01-26T02:16:36.306Z,44.95
2019-01-26T02:17:41.356Z,45.63
2019-01-26T02:18:46.626Z,48.30
2019-01-26T02:19:51.741Z,45.95
2019-01-26T02:20:56.511Z,48.17
2019-01-26T02:22:01.642Z,45.88
2019-01-26T02:23:06.903Z,49.77
2019-01-26T02:24:11.789Z,49.20
2019-01-26T02:25:16.617Z,52.15
2019-01-26T02:26:21.391Z,48.80
2019-01-26T02:27:26.274Z,42.93
2019-01-26T02:28:31.100Z,47.65
2019-01-26T02:29:36.418Z,45.10
2019-01-26T02:30:41.556Z,44.65
2019-01-26T02:31:46.314Z,49.13
2019-01-26T02:32:51.096Z,48.40
2019-01-26T02:33:55.915Z,50.40
2019-01-26T02:35:00.766Z,51.53
2019-01-26T02:36:05.547Z,49.95
2019-01-26T02:37:10.875Z,46.45
2019-01-26T02:38:15.691Z,50.23
2019-01-26T02:39:20.529Z,49.53
2019-01-26T02:40:25.338Z,49.63
2019-01-26T02:41:30.732Z,50.58
2019-01-26T02:42:36.069Z,50.05
2019-01-26T02:43:41.979Z,48.17
2019-01-26T02:44:46.896Z,46.95
2019-01-26T02:45:52.487Z,58.30
2019-01-26T02:46:58.023Z,46.75
2019-01-26T02:48:03.584Z,48.95
2019-01-26T02:49:09.757Z,48.38
2019-01-26T02:50:16.278Z,46.88
2019-01-26T02:51:21.076Z,48.80
2019-01-26T02:52:26.388Z,49.08
2019-01-26T02:53:32.383Z,51.37
2019-01-26T02:54:37.900Z,48.10
2019-01-26T02:55:42.712Z,50.70
2019-01-26T02:56:47.849Z,50.63
2019-01-26T02:57:52.772Z,51.73
2019-01-26T02:58:57.563Z,47.78
2019-01-26T03:00:02.452Z,46.50
2019-01-26T03:01:07.687Z,43.92
2019-01-26T03:02:12.781Z,44.30
2019-01-26T03:03:18.406Z,49.40
2019-01-26T03:04:23.200Z,47.35
2019-01-26T03:05:28.026Z,44.55
2019-01-26T03:06:33.179Z,46.00
2019-01-26T03:07:38.696Z,50.20
2019-01-26T03:08:43.512Z,49.58
2019-01-26T03:09:48.374Z,44.08
2019-01-26T03:10:53.203Z,49.42
2019-01-26T03:11:57.719Z,46.92
2019-01-26T03:13:02.274Z,40.58
2019-01-26T03:14:07.972Z,43.98
2019-01-26T03:15:15.421Z,41.98
2019-01-26T03:16:20.245Z,44.93
2019-01-26T03:17:25.564Z,46.13
2019-01-26T03:18:31.071Z,52.30
2019-01-26T03:19:35.860Z,43.48
2019-01-26T03:20:41.108Z,45.78
2019-01-26T03:21:46.304Z,44.23
2019-01-26T03:22:51.142Z,46.37
2019-01-26T03:23:56.229Z,45.15
2019-01-26T03:25:01.773Z,48.45
2019-01-26T03:26:07.533Z,47.27
2019-01-26T03:27:13.345Z,48.85
2019-01-26T03:28:18.519Z,47.50
2019-01-26T03:29:24.319Z,48.98
2019-01-26T03:30:29.114Z,48.10
2019-01-26T03:31:34.498Z,51.02
2019-01-26T03:32:39.471Z,51.92
2019-01-26T03:33:44.649Z,55.38
2019-01-26T03:34:50.175Z,50.30
2019-01-26T03:35:58.485Z,51.28
2019-01-26T03:37:03.697Z,53.63
2019-01-26T03:38:08.959Z,52.83
2019-01-26T03:39:14.294Z,61.28
2019-01-26T03:40:20.704Z,56.35
2019-01-26T03:41:26.299Z,52.62
2019-01-26T03:42:31.221Z,57.95
2019-01-26T03:43:36.046Z,55.33
2019-01-26T03:44:40.828Z,57.08
2019-01-26T03:45:45.720Z,62.55
2019-01-26T03:46:50.828Z,65.92
2019-01-26T03:47:55.704Z,65.67
2019-01-26T03:49:00.861Z,64.15
2019-01-26T03:50:07.440Z,62.93
2019-01-26T03:51:12.968Z,60.88
2019-01-26T03:52:18.354Z,60.65
2019-01-26T03:53:23.945Z,61.05
2019-01-26T03:54:29.802Z,71.20
2019-01-26T03:55:34.981Z,62.27
2019-01-26T03:56:39.771Z,63.15
2019-01-26T03:57:45.302Z,68.97
2019-01-26T03:58:50.461Z,68.17
2019-01-26T03:59:55.283Z,62.15
2019-01-26T04:01:00.448Z,67.78
2019-01-26T04:02:05.570Z,67.55
2019-01-26T04:03:10.505Z,66.05
2019-01-26T04:04:15.426Z,70.17
2019-01-26T04:05:20.993Z,67.70
2019-01-26T04:06:26.079Z,72.08
2019-01-26T04:07:31.235Z,72.75
2019-01-26T04:08:36.034Z,68.40
2019-01-26T04:09:41.309Z,71.40
2019-01-26T04:10:46.120Z,67.58
2019-01-26T04:11:50.901Z,73.33
2019-01-26T04:12:55.783Z,75.95
2019-01-26T04:14:00.999Z,77.70
2019-01-26T04:15:06.278Z,64.90
2019-01-26T04:16:11.395Z,68.00
2019-01-26T04:17:21.738Z,74.17
2019-01-26T04:18:23.358Z,75.42
2019-01-26T04:19:28.189Z,74.47
2019-01-26T04:20:32.963Z,75.92
2019-01-26T04:21:38.416Z,82.47
2019-01-26T04:22:43.542Z,75.25
2019-01-26T04:23:48.065Z,76.65
2019-01-26T04:24:52.883Z,72.12
2019-01-26T04:25:58.696Z,79.30
2019-01-26T04:27:03.190Z,77.53
2019-01-26T04:28:08.646Z,78.50
2019-01-26T04:29:13.783Z,83.00
2019-01-26T04:30:20.703Z,77.87
2019-01-26T04:31:25.483Z,81.55
2019-01-26T04:32:30.444Z,80.90
2019-01-26T04:33:35.331Z,75.90
2019-01-26T04:34:40.761Z,80.03
2019-01-26T04:35:45.563Z,79.87
2019-01-26T04:36:50.379Z,75.08
2019-01-26T04:37:55.485Z,81.37
2019-01-26T04:39:01.045Z,77.42
2019-01-26T04:40:08.873Z,73.12
2019-01-26T04:41:13.562Z,73.30
2019-01-26T04:42:18.689Z,81.97
2019-01-26T04:43:23.863Z,83.70
2019-01-26T04:44:28.650Z,78.52
2019-01-26T04:45:33.476Z,86.75
2019-01-26T04:46:38.274Z,82.57
2019-01-26T04:47:43.379Z,77.75
2019-01-26T04:48:48.932Z,86.63
2019-01-26T04:49:53.794Z,77.00
2019-01-26T04:50:58.323Z,77.03
2019-01-26T04:52:03.530Z,75.45
2019-01-26T04:53:08.335Z,75.12
2019-01-26T04:54:13.645Z,74.53
2019-01-26T04:55:18.948Z,86.90
2019-01-26T04:56:24.181Z,74.65
2019-01-26T04:57:29.315Z,77.47
2019-01-26T04:58:34.108Z,80.75
2019-01-26T04:59:39.277Z,80.20
2019-01-26T05:00:44.134Z,83.80
2019-01-26T05:01:49.270Z,74.60
2019-01-26T05:02:54.895Z,86.10
2019-01-26T05:03:59.683Z,79.35
2019-01-26T05:05:04.453Z,80.53
2019-01-26T05:06:09.610Z,83.70
2019-01-26T05:07:14.765Z,84.85
2019-01-26T05:08:20.247Z,75.60
2019-01-26T05:09:25.746Z,77.50
2019-01-26T05:10:31.392Z,80.05
2019-01-26T05:11:36.581Z,89.72
2019-01-26T05:12:42.132Z,77.97
2019-01-26T05:13:47.275Z,80.17
2019-01-26T05:14:52.451Z,80.05
2019-01-26T05:15:58.054Z,79.90
2019-01-26T05:17:03.628Z,77.55
2019-01-26T05:18:08.967Z,79.77
2019-01-26T05:19:13.839Z,81.15
2019-01-26T05:20:21.297Z,86.92
2019-01-26T05:21:26.419Z,83.45
2019-01-26T05:22:31.505Z,79.62
2019-01-26T05:23:36.705Z,83.25
2019-01-26T05:24:41.193Z,88.78
2019-01-26T05:25:45.973Z,81.08
2019-01-26T05:26:50.761Z,81.92
2019-01-26T05:27:55.846Z,86.47
2019-01-26T05:29:00.393Z,81.45
2019-01-26T05:30:05.880Z,86.42
2019-01-26T05:31:10.386Z,85.70
2019-01-26T05:32:15.575Z,94.55
2019-01-26T05:33:20.816Z,77.80
2019-01-26T05:34:26.000Z,78.52
2019-01-26T05:35:30.799Z,87.72
2019-01-26T05:36:36.005Z,86.05
2019-01-26T05:37:41.464Z,74.35
2019-01-26T05:38:46.607Z,91.12
2019-01-26T05:39:51.368Z,75.50
2019-01-26T05:40:56.434Z,79.90
2019-01-26T05:42:01.576Z,82.75
2019-01-26T05:43:06.376Z,87.37
2019-01-26T05:44:11.278Z,83.05
2019-01-26T05:45:18.079Z,76.85
2019-01-26T05:46:22.900Z,83.50
2019-01-26T05:47:27.648Z,84.55
2019-01-26T05:48:32.168Z,82.45
2019-01-26T05:49:37.283Z,80.85
2019-01-26T05:50:42.420Z,78.95
2019-01-26T05:51:47.843Z,79.10
2019-01-26T05:52:53.105Z,77.47
2019-01-26T05:53:59.006Z,83.15
2019-01-26T05:55:04.269Z,81.78
2019-01-26T05:56:09.157Z,78.50
2019-01-26T05:57:13.911Z,81.12
2019-01-26T05:58:18.734Z,73.60
2019-01-26T05:59:23.495Z,84.90
2019-01-26T06:00:39.259Z,85.12
2019-01-26T06:01:44.709Z,71.20
2019-01-26T06:02:49.491Z,77.30
2019-01-26T06:03:54.277Z,79.70
2019-01-26T06:04:59.365Z,80.10
2019-01-26T06:06:04.116Z,83.58
2019-01-26T06:07:08.908Z,79.70
2019-01-26T06:08:13.742Z,77.08
2019-01-26T06:09:19.225Z,79.17
2019-01-26T06:10:24.002Z,92.80
2019-01-26T06:11:29.124Z,82.60
2019-01-26T06:12:33.889Z,77.80
2019-01-26T06:13:39.812Z,81.28
2019-01-26T06:14:44.945Z,81.40
2019-01-26T06:15:50.182Z,81.42
2019-01-26T06:16:55.843Z,78.07
2019-01-26T06:18:01.409Z,82.15
2019-01-26T06:19:05.901Z,81.15
2019-01-26T06:20:11.182Z,78.33
2019-01-26T06:21:15.957Z,75.28
2019-01-26T06:22:21.104Z,75.22
2019-01-26T06:23:26.867Z,70.42
2019-01-26T06:24:31.726Z,75.70
2019-01-26T06:25:36.527Z,75.85
2019-01-26T06:26:41.312Z,83.40
2019-01-26T06:27:46.461Z,73.17
2019-01-26T06:28:52.094Z,77.67
2019-01-26T06:29:57.516Z,68.90
2019-01-26T06:31:02.738Z,67.97
2019-01-26T06:32:07.229Z,73.57
2019-01-26T06:33:12.432Z,67.87
2019-01-26T06:34:17.512Z,74.72
2019-01-26T06:35:22.282Z,73.45
2019-01-26T06:36:27.116Z,69.32
2019-01-26T06:37:31.603Z,68.50
2019-01-26T06:38:36.411Z,68.17
2019-01-26T06:39:41.612Z,74.58
2019-01-26T06:40:46.413Z,73.60
2019-01-26T06:41:51.657Z,71.95
2019-01-26T06:42:56.495Z,69.97
2019-01-26T06:44:01.596Z,67.80
2019-01-26T06:45:07.085Z,63.15
2019-01-26T06:46:12.292Z,64.62
2019-01-26T06:47:17.592Z,68.33
2019-01-26T06:48:22.373Z,64.37
2019-01-26T06:49:27.146Z,59.85
2019-01-26T06:50:32.689Z,66.77
2019-01-26T06:51:38.947Z,64.80
2019-01-26T06:52:44.071Z,65.70
2019-01-26T06:53:48.908Z,71.02
2019-01-26T06:54:53.392Z,70.30
2019-01-26T06:55:58.499Z,61.77
2019-01-26T06:57:03.619Z,67.60
2019-01-26T06:58:09.288Z,66.65
2019-01-26T06:59:14.714Z,68.90
2019-01-26T07:00:22.208Z,70.50
2019-01-26T07:01:27.027Z,61.48
2019-01-26T07:02:31.807Z,62.10
2019-01-26T07:03:36.707Z,63.35
2019-01-26T07:04:50.274Z,60.78
2019-01-26T07:06:20.049Z,60.67
2019-01-26T07:07:25.640Z,60.00
2019-01-26T07:08:30.766Z,62.70
2019-01-26T07:09:35.520Z,60.00
2019-01-26T07:10:41.056Z,59.77
2019-01-26T07:11:46.257Z,63.92
2019-01-26T07:12:51.770Z,62.17
2019-01-26T07:13:56.546Z,62.10
2019-01-26T07:15:01.141Z,59.38
2019-01-26T07:16:06.322Z,64.45
2019-01-26T07:17:11.179Z,62.43
2019-01-26T07:18:15.946Z,57.45
2019-01-26T07:19:20.725Z,56.13
2019-01-26T07:20:25.959Z,59.60
2019-01-26T07:21:31.040Z,58.35
2019-01-26T07:22:35.838Z,58.65
2019-01-26T07:23:40.337Z,57.78
2019-01-26T07:24:45.516Z,61.60
2019-01-26T07:25:50.280Z,60.50
2019-01-26T07:26:55.059Z,57.30
2019-01-26T07:27:59.854Z,59.98
2019-01-26T07:29:04.615Z,60.70
2019-01-26T07:30:12.095Z,61.28
2019-01-26T07:31:16.897Z,55.10
2019-01-26T07:32:21.677Z,55.67
2019-01-26T07:33:26.834Z,56.33
2019-01-26T07:34:31.305Z,58.78
2019-01-26T07:35:36.435Z,55.98
2019-01-26T07:36:40.925Z,59.08
2019-01-26T07:37:46.798Z,54.40
2019-01-26T07:38:51.572Z,55.15
2019-01-26T07:39:56.686Z,60.03
2019-01-26T07:41:01.482Z,57.60
2019-01-26T07:42:06.266Z,54.80
2019-01-26T07:43:11.394Z,57.38
2019-01-26T07:44:15.997Z,51.33
2019-01-26T07:45:20.820Z,54.63
2019-01-26T07:46:25.621Z,53.60
2019-01-26T07:47:30.413Z,50.05
2019-01-26T07:48:35.291Z,56.63
2019-01-26T07:49:40.431Z,53.55
2019-01-26T07:50:45.298Z,61.48
2019-01-26T07:51:50.044Z,53.13
2019-01-26T07:52:55.319Z,52.98
2019-01-26T07:53:59.827Z,51.13
2019-01-26T07:55:04.637Z,53.17
2019-01-26T07:56:09.422Z,48.78
2019-01-26T07:57:14.326Z,50.98
2019-01-26T07:58:18.892Z,54.55
2019-01-26T07:59:24.791Z,53.73
2019-01-26T08:00:29.315Z,44.05
2019-01-26T08:01:34.622Z,49.48
2019-01-26T08:02:39.753Z,48.15
2019-01-26T08:03:44.548Z,43.60
2019-01-26T08:04:49.403Z,47.60
2019-01-26T08:05:54.193Z,44.93
2019-01-26T08:06:58.940Z,47.10
2019-01-26T08:08:03.436Z,44.42
2019-01-26T08:09:10.261Z,45.10
2019-01-26T08:10:17.607Z,44.63
2019-01-26T08:11:22.802Z,41.98
2019-01-26T08:12:28.050Z,40.05
2019-01-26T08:13:33.298Z,42.88
2019-01-26T08:14:38.067Z,43.20
2019-01-26T08:15:42.840Z,41.02
2019-01-26T08:16:48.035Z,42.98
2019-01-26T08:17:52.853Z,39.23
2019-01-26T08:18:57.362Z,36.70
2019-01-26T08:20:02.623Z,40.08
2019-01-26T08:21:07.398Z,42.60
2019-01-26T08:22:12.608Z,40.30
2019-01-26T08:23:18.082Z,43.50
2019-01-26T08:24:22.883Z,39.73
2019-01-26T08:25:30.086Z,41.85
2019-01-26T08:26:35.839Z,41.75
2019-01-26T08:27:41.397Z,40.43
2019-01-26T08:28:46.716Z,35.63
2019-01-26T08:29:51.485Z,40.50
2019-01-26T08:30:56.268Z,41.88
2019-01-26T08:32:01.680Z,41.95
2019-01-26T08:33:06.520Z,37.20
2019-01-26T08:34:12.042Z,36.48
2019-01-26T08:35:17.282Z,40.85
2019-01-26T08:36:23.108Z,38.38
2019-01-26T08:37:27.883Z,35.63
2019-01-26T08:38:33.882Z,39.00
2019-01-26T08:39:39.181Z,36.23
2019-01-26T08:40:44.043Z,38.65
2019-01-26T08:41:49.170Z,34.98
2019-01-26T08:42:54.717Z,33.90
2019-01-26T08:43:59.531Z,32.23
2019-01-26T08:45:04.553Z,39.00
2019-01-26T08:46:10.032Z,33.15
2019-01-26T08:47:15.138Z,34.75
2019-01-26T08:48:20.253Z,34.23
2019-01-26T08:49:25.406Z,36.42
2019-01-26T08:50:30.475Z,33.80
2019-01-26T08:51:35.247Z,34.45
2019-01-26T08:52:40.044Z,30.88
2019-01-26T08:53:44.824Z,32.17
2019-01-26T08:54:50.545Z,32.78
2019-01-26T08:55:55.827Z,32.53
2019-01-26T08:57:00.594Z,34.73
2019-01-26T08:58:05.353Z,35.35
2019-01-26T08:59:11.410Z,32.42
2019-01-26T09:00:19.258Z,27.30
2019-01-26T09:01:24.289Z,34.60
2019-01-26T09:02:51.211Z,32.38
2019-01-26T09:04:24.409Z,31.25
2019-01-26T09:05:32.301Z,32.70
2019-01-26T09:06:40.204Z,31.60
2019-01-26T09:07:45.515Z,30.85
2019-01-26T09:08:51.286Z,29.05
2019-01-26T09:09:56.122Z,29.10
2019-01-26T09:11:01.349Z,28.95
2019-01-26T09:12:06.321Z,28.80
2019-01-26T09:13:12.057Z,25.97
2019-01-26T09:14:16.858Z,28.10
2019-01-26T09:15:22.561Z,26.73
2019-01-26T09:16:27.114Z,23.90
2019-01-26T09:17:32.480Z,28.02
2019-01-26T09:18:39.081Z,29.12
2019-01-26T09:19:43.751Z,28.60
2019-01-26T09:20:49.069Z,28.47
2019-01-26T09:21:53.848Z,25.90
2019-01-26T09:22:59.097Z,28.23
2019-01-26T09:24:03.941Z,28.92
2019-01-26T09:25:09.082Z,28.92
2019-01-26T09:26:14.298Z,24.25
2019-01-26T09:27:19.179Z,26.25
2019-01-26T09:28:24.036Z,22.55
2019-01-26T09:29:28.926Z,23.05
2019-01-26T09:30:33.703Z,26.50
2019-01-26T09:32:00.710Z,22.40
2019-01-26T09:33:08.377Z,25.00
2019-01-26T09:34:13.230Z,23.60
2019-01-26T09:35:18.739Z,24.30
2019-01-26T09:36:23.527Z,20.82
2019-01-26T09:37:28.764Z,21.93
2019-01-26T09:38:33.922Z,22.15
2019-01-26T09:39:38.811Z,23.25
2019-01-26T09:40:44.949Z,22.62
2019-01-26T09:41:49.836Z,23.73
2019-01-26T09:42:54.734Z,24.60
2019-01-26T09:43:59.512Z,26.40
2019-01-26T09:45:04.062Z,24.05
2019-01-26T09:46:09.168Z,22.58
2019-01-26T09:47:14.377Z,22.48
2019-01-26T09:48:19.168Z,25.23
2019-01-26T09:49:23.950Z,24.32
2019-01-26T09:50:28.732Z,24.77
2019-01-26T09:51:33.944Z,25.50
2019-01-26T09:52:38.762Z,27.65
2019-01-26T09:53:45.137Z,24.95
2019-01-26T09:54:51.006Z,21.20
2019-01-26T09:55:56.201Z,25.95
2019-01-26T09:57:01.005Z,25.92
2019-01-26T09:58:06.156Z,30.02
2019-01-26T09:59:11.109Z,27.00
2019-01-26T10:00:18.228Z,24.98
2019-01-26T10:01:22.976Z,24.05
2019-01-26T10:02:28.576Z,23.42
2019-01-26T10:03:33.343Z,24.90
2019-01-26T10:04:38.842Z,24.18
2019-01-26T10:05:43.902Z,24.25
2019-01-26T10:06:48.781Z,21.75
2019-01-26T10:07:53.954Z,24.00
2019-01-26T10:08:58.725Z,21.10
2019-01-26T10:10:03.499Z,23.30
2019-01-26T10:11:08.607Z,22.15
2019-01-26T10:12:14.034Z,23.55
2019-01-26T10:13:19.134Z,23.42
2019-01-26T10:14:23.906Z,20.95
2019-01-26T10:15:29.306Z,20.65
2019-01-26T10:16:34.407Z,24.63
2019-01-26T10:17:45.776Z,22.02
2019-01-26T10:18:53.306Z,21.37
2019-01-26T10:19:53.302Z,20.77
2019-01-26T10:20:58.401Z,22.15
2019-01-26T10:22:02.881Z,22.93
2019-01-26T10:23:08.035Z,21.57
2019-01-26T10:24:12.541Z,23.12
2019-01-26T10:25:17.595Z,21.35
2019-01-26T10:26:22.891Z,23.90
2019-01-26T10:27:27.658Z,21.42
2019-01-26T10:28:32.180Z,20.27
2019-01-26T10:29:36.998Z,20.82
2019-01-26T10:30:51.599Z,22.10
2019-01-26T10:31:56.352Z,20.80
2019-01-26T10:33:01.146Z,19.87
2019-01-26T10:34:05.955Z,18.92
2019-01-26T10:35:10.453Z,21.15
2019-01-26T10:36:21.917Z,22.87
2019-01-26T10:37:29.555Z,23.47
2019-01-26T10:38:36.410Z,19.45
2019-01-26T10:39:44.958Z,19.92
2019-01-26T10:41:07.286Z,21.20
2019-01-26T10:42:24.467Z,23.55
2019-01-26T10:43:30.272Z,19.20
2019-01-26T10:44:35.266Z,23.52
2019-01-26T10:45:39.761Z,22.27
2019-01-26T10:46:44.291Z,20.08
2019-01-26T10:47:49.061Z,21.17
2019-01-26T10:49:00.471Z,20.60
2019-01-26T10:50:00.722Z,19.45
2019-01-26T10:51:05.869Z,21.30
2019-01-26T10:52:10.656Z,21.02
2019-01-26T10:53:15.856Z,19.82
2019-01-26T10:54:21.463Z,21.93
2019-01-26T10:55:26.227Z,19.67
2019-01-26T10:56:31.003Z,20.08
2019-01-26T10:57:35.836Z,18.55
2019-01-26T10:58:40.653Z,18.90
2019-01-26T10:59:45.426Z,20.90
2019-01-26T11:00:50.827Z,20.05
2019-01-26T11:01:56.517Z,19.48
2019-01-26T11:03:01.675Z,21.02
2019-01-26T11:04:06.459Z,19.50
2019-01-26T11:05:11.284Z,23.00
2019-01-26T11:06:16.418Z,21.17
2019-01-26T11:07:21.508Z,23.15
2019-01-26T11:08:26.260Z,22.50
2019-01-26T11:09:31.531Z,21.20
2019-01-26T11:10:37.041Z,20.30
2019-01-26T11:11:42.226Z,20.30
2019-01-26T11:12:46.994Z,19.62
2019-01-26T11:13:52.095Z,20.57
2019-01-26T11:14:56.902Z,23.07
2019-01-26T11:16:02.002Z,20.05
2019-01-26T11:17:07.197Z,20.37
2019-01-26T11:18:11.684Z,19.87
2019-01-26T11:19:16.463Z,22.27
2019-01-26T11:20:21.585Z,21.50
2019-01-26T11:21:26.364Z,22.62
2019-01-26T11:22:31.260Z,24.55
2019-01-26T11:23:36.048Z,21.62
2019-01-26T11:24:40.558Z,20.97
2019-01-26T11:25:45.329Z,25.65
2019-01-26T11:26:50.205Z,22.00
2019-01-26T11:27:54.971Z,23.15
2019-01-26T11:29:00.069Z,23.70
2019-01-26T11:30:05.469Z,24.50
2019-01-26T11:31:12.121Z,22.05
2019-01-26T11:32:16.923Z,20.17
2019-01-26T11:33:21.433Z,20.12
2019-01-26T11:34:26.199Z,22.00
2019-01-26T11:35:31.109Z,20.25
2019-01-26T11:36:35.966Z,23.38
2019-01-26T11:37:40.755Z,23.40
2019-01-26T11:38:45.933Z,21.75
2019-01-26T11:39:57.391Z,22.00
2019-01-26T11:41:02.781Z,22.98
2019-01-26T11:42:07.272Z,21.90
2019-01-26T11:43:12.182Z,21.20
2019-01-26T11:44:17.676Z,21.70
2019-01-26T11:45:59.517Z,21.55
2019-01-26T11:47:06.999Z,21.07
2019-01-26T11:48:19.178Z,24.23
2019-01-26T11:49:23.683Z,22.13
2019-01-26T11:50:42.458Z,21.77
2019-01-26T11:52:06.092Z,21.87
2019-01-26T11:53:11.214Z,23.38
2019-01-26T11:54:18.580Z,22.20
2019-01-26T11:55:30.915Z,23.00
2019-01-26T11:56:45.077Z,26.07
2019-01-26T11:57:50.287Z,21.95
2019-01-26T11:58:55.785Z,23.30
2019-01-26T12:00:25.860Z,22.27
2019-01-26T12:01:48.474Z,24.27
2019-01-26T12:03:12.098Z,22.95
2019-01-26T12:04:38.818Z,23.10
2019-01-26T12:06:02.413Z,23.38
2019-01-26T12:07:12.539Z,22.52
2019-01-26T12:08:17.392Z,21.50
2019-01-26T12:09:22.169Z,24.18
2019-01-26T12:10:26.947Z,21.00
2019-01-26T12:11:31.461Z,20.82
2019-01-26T12:12:36.223Z,22.07
2019-01-26T12:13:41.365Z,22.20
2019-01-26T12:14:45.859Z,22.22
2019-01-26T12:15:50.428Z,21.77
2019-01-26T12:16:55.725Z,20.52
2019-01-26T12:18:00.822Z,18.57
2019-01-26T12:19:05.338Z,21.65
2019-01-26T12:20:12.981Z,21.15
2019-01-26T12:21:17.747Z,20.55
2019-01-26T12:22:22.579Z,20.55
2019-01-26T12:23:27.338Z,20.72
2019-01-26T12:24:32.439Z,19.65
2019-01-26T12:25:37.999Z,20.30
2019-01-26T12:26:42.526Z,24.15
2019-01-26T12:27:48.098Z,22.58
2019-01-26T12:28:52.898Z,23.73
2019-01-26T12:29:57.394Z,18.80
2019-01-26T12:31:02.559Z,21.33
2019-01-26T12:32:07.079Z,20.80
2019-01-26T12:33:11.868Z,18.57
2019-01-26T12:34:16.646Z,20.40
2019-01-26T12:35:21.443Z,20.50
2019-01-26T12:36:26.219Z,21.05
2019-01-26T12:37:30.728Z,21.27
2019-01-26T12:38:35.842Z,20.30
2019-01-26T12:39:40.960Z,19.40
2019-01-26T12:40:45.766Z,18.15
2019-01-26T12:41:51.179Z,18.25
2019-01-26T12:42:56.361Z,18.77
2019-01-26T12:44:00.849Z,17.15
2019-01-26T12:45:06.913Z,19.02
2019-01-26T12:46:12.061Z,18.45
2019-01-26T12:47:17.050Z,16.65
2019-01-26T12:48:22.008Z,18.85
2019-01-26T12:49:29.650Z,16.25
2019-01-26T12:50:34.022Z,18.77
2019-01-26T12:51:39.140Z,17.82
2019-01-26T12:52:43.634Z,16.20
2019-01-26T12:53:48.770Z,16.93
2019-01-26T12:54:53.555Z,18.62
2019-01-26T12:55:59.166Z,15.78
2019-01-26T12:57:03.938Z,19.30
2019-01-26T12:58:08.490Z,15.72
2019-01-26T12:59:13.508Z,17.52
2019-01-26T13:00:19.723Z,15.83
2019-01-26T13:01:24.528Z,19.23
2019-01-26T13:02:29.835Z,15.03
2019-01-26T13:03:34.651Z,17.82
2019-01-26T13:04:39.828Z,15.90
2019-01-26T13:05:44.985Z,18.55
2019-01-26T13:06:49.770Z,15.25
2019-01-26T13:07:54.952Z,18.00
2019-01-26T13:08:59.759Z,16.60
2019-01-26T13:10:04.554Z,16.07
2019-01-26T13:11:20.709Z,17.95
2019-01-26T13:12:25.482Z,13.38
2019-01-26T13:13:30.581Z,14.70
2019-01-26T13:14:35.137Z,15.00
2019-01-26T13:15:40.557Z,19.15
2019-01-26T13:16:45.351Z,13.98
2019-01-26T13:17:50.148Z,15.98
2019-01-26T13:18:54.962Z,16.07
2019-01-26T13:19:59.742Z,14.78
2019-01-26T13:21:04.532Z,13.13
2019-01-26T13:22:09.639Z,12.78
2019-01-26T13:23:14.450Z,14.38
2019-01-26T13:24:19.245Z,13.68
2019-01-26T13:25:24.462Z,13.25
2019-01-26T13:26:29.238Z,9.98
2019-01-26T13:27:34.008Z,9.28
2019-01-26T13:28:38.784Z,9.83
2019-01-26T13:29:44.373Z,10.10
2019-01-26T13:30:49.566Z,9.53
2019-01-26T13:31:54.313Z,8.85
2019-01-26T13:32:59.141Z,9.58
2019-01-26T13:34:04.451Z,7.80
2019-01-26T13:35:09.968Z,7.67
2019-01-26T13:36:18.154Z,7.45
2019-01-26T13:37:22.923Z,10.28
2019-01-26T13:38:27.817Z,8.85
2019-01-26T13:39:33.258Z,8.28
2019-01-26T13:40:38.032Z,6.85
2019-01-26T13:41:43.113Z,7.10
2019-01-26T13:42:48.218Z,6.33
2019-01-26T13:43:52.979Z,5.70
2019-01-26T13:44:57.770Z,5.60
2019-01-26T13:46:02.972Z,6.78
2019-01-26T13:47:07.795Z,5.70
2019-01-26T13:48:12.875Z,5.28
2019-01-26T13:49:17.772Z,6.55
2019-01-26T13:50:22.619Z,6.03
2019-01-26T13:51:27.097Z,7.00
2019-01-26T13:52:32.297Z,5.83
2019-01-26T13:53:38.225Z,6.75
2019-01-26T13:54:43.189Z,4.70
2019-01-26T13:55:48.688Z,6.22
2019-01-26T13:56:53.479Z,5.37
2019-01-26T13:57:58.275Z,6.28
2019-01-26T13:59:02.762Z,5.30
2019-01-26T14:00:12.874Z,5.03
2019-01-26T14:01:17.674Z,5.97
2019-01-26T14:02:22.426Z,7.17
2019-01-26T14:03:26.906Z,6.28
2019-01-26T14:04:31.381Z,6.92
2019-01-26T14:05:37.078Z,7.22
2019-01-26T14:06:42.866Z,7.05